sensor_id;sensor_type;location;lat;lon;timestamp;P1;durP1;ratioP1;P2;durP2;ratioP2
41141;SDS011;63666;52.284;20.890;2022-10-16T00:01:37;7.80;;;6.50;;
41141;SDS011;63666;52.284;20.890;2022-10-16T00:04:11;8.40;;;7.20;;
41141;SDS011;63666;52.284;20.890;2022-10-16T00:06:43;8.80;;;6.70;;
41141;SDS011;63666;52.284;20.890;2022-10-16T00:09:16;8.90;;;6.70;;
41141;SDS011;63666;52.284;20.890;2022-10-16T00:11:48;8.30;;;7.00;;
41141;SDS011;63666;52.284;20.890;2022-10-16T00:14:20;8.10;;;7.00;;
41141;SDS011;63666;52.284;20.890;2022-10-16T00:16:52;7.70;;;6.40;;
41141;SDS011;63666;52.284;20.890;2022-10-16T00:19:24;8.70;;;7.30;;
41141;SDS011;63666;52.284;20.890;2022-10-16T00:21:56;9.80;;;7.50;;
41141;SDS011;63666;52.284;20.890;2022-10-16T00:24:29;8.60;;;7.40;;
41141;SDS011;63666;52.284;20.890;2022-10-16T00:27:02;8.60;;;7.40;;
41141;SDS011;63666;52.284;20.890;2022-10-16T00:29:34;8.20;;;7.00;;
41141;SDS011;63666;52.284;20.890;2022-10-16T00:32:06;8.60;;;7.50;;
41141;SDS011;63666;52.284;20.890;2022-10-16T00:34:39;8.70;;;7.40;;
41141;SDS011;63666;52.284;20.890;2022-10-16T00:37:11;8.30;;;7.20;;
41141;SDS011;63666;52.284;20.890;2022-10-16T00:39:44;8.90;;;7.60;;
41141;SDS011;63666;52.284;20.890;2022-10-16T00:42:17;8.90;;;7.60;;
41141;SDS011;63666;52.284;20.890;2022-10-16T00:44:51;8.40;;;7.50;;
41141;SDS011;63666;52.284;20.890;2022-10-16T00:47:30;8.70;;;7.30;;
41141;SDS011;63666;52.284;20.890;2022-10-16T00:50:08;9.50;;;7.80;;
41141;SDS011;63666;52.284;20.890;2022-10-16T00:52:48;8.60;;;7.00;;
41141;SDS011;63666;52.284;20.890;2022-10-16T00:55:23;9.40;;;7.90;;
41141;SDS011;63666;52.284;20.890;2022-10-16T00:57:57;8.70;;;7.20;;
41141;SDS011;63666;52.284;20.890;2022-10-16T01:00:29;8.70;;;7.80;;
41141;SDS011;63666;52.284;20.890;2022-10-16T01:03:03;9.10;;;7.50;;
41141;SDS011;63666;52.284;20.890;2022-10-16T01:06:12;8.30;;;7.00;;
41141;SDS011;63666;52.284;20.890;2022-10-16T01:09:11;8.70;;;7.10;;
41141;SDS011;63666;52.284;20.890;2022-10-16T01:11:57;8.70;;;7.30;;
41141;SDS011;63666;52.284;20.890;2022-10-16T01:14:40;9.10;;;8.00;;
41141;SDS011;63666;52.284;20.890;2022-10-16T01:17:19;9.10;;;7.90;;
41141;SDS011;63666;52.284;20.890;2022-10-16T01:20:06;8.90;;;7.30;;
41141;SDS011;63666;52.284;20.890;2022-10-16T01:22:55;8.60;;;7.50;;
41141;SDS011;63666;52.284;20.890;2022-10-16T01:25:44;9.40;;;8.00;;
41141;SDS011;63666;52.284;20.890;2022-10-16T01:28:36;8.80;;;7.40;;
41141;SDS011;63666;52.284;20.890;2022-10-16T01:31:13;8.80;;;7.90;;
41141;SDS011;63666;52.284;20.890;2022-10-16T01:33:51;9.20;;;7.80;;
41141;SDS011;63666;52.284;20.890;2022-10-16T01:36:31;8.90;;;8.00;;
41141;SDS011;63666;52.284;20.890;2022-10-16T01:39:10;9.70;;;8.10;;
41141;SDS011;63666;52.284;20.890;2022-10-16T01:41:46;9.40;;;8.00;;
41141;SDS011;63666;52.284;20.890;2022-10-16T01:44:24;9.10;;;7.80;;
41141;SDS011;63666;52.284;20.890;2022-10-16T01:46:58;9.80;;;8.00;;
41141;SDS011;63666;52.284;20.890;2022-10-16T01:49:34;9.30;;;8.10;;
41141;SDS011;63666;52.284;20.890;2022-10-16T01:52:10;8.90;;;7.90;;
41141;SDS011;63666;52.284;20.890;2022-10-16T01:54:47;9.10;;;8.20;;
41141;SDS011;63666;52.284;20.890;2022-10-16T01:57:25;8.80;;;7.90;;
41141;SDS011;63666;52.284;20.890;2022-10-16T02:00:03;9.40;;;8.00;;
41141;SDS011;63666;52.284;20.890;2022-10-16T02:02:42;9.30;;;7.80;;
41141;SDS011;63666;52.284;20.890;2022-10-16T02:05:22;8.90;;;7.80;;
41141;SDS011;63666;52.284;20.890;2022-10-16T02:07:57;9.00;;;8.10;;
41141;SDS011;63666;52.284;20.890;2022-10-16T02:10:30;9.10;;;8.10;;
41141;SDS011;63666;52.284;20.890;2022-10-16T02:13:07;8.60;;;7.70;;
41141;SDS011;63666;52.284;20.890;2022-10-16T02:15:40;9.90;;;8.10;;
41141;SDS011;63666;52.284;20.890;2022-10-16T02:18:13;9.00;;;7.70;;
41141;SDS011;63666;52.284;20.890;2022-10-16T02:20:51;8.90;;;7.80;;
41141;SDS011;63666;52.284;20.890;2022-10-16T02:23:33;9.20;;;7.80;;
41141;SDS011;63666;52.284;20.890;2022-10-16T02:26:09;9.50;;;8.00;;
41141;SDS011;63666;52.284;20.890;2022-10-16T02:28:46;9.00;;;8.10;;
41141;SDS011;63666;52.284;20.890;2022-10-16T02:31:26;9.30;;;7.90;;
41141;SDS011;63666;52.284;20.890;2022-10-16T02:34:00;9.20;;;7.70;;
41141;SDS011;63666;52.284;20.890;2022-10-16T02:36:36;8.40;;;7.50;;
41141;SDS011;63666;52.284;20.890;2022-10-16T02:39:09;9.10;;;7.80;;
41141;SDS011;63666;52.284;20.890;2022-10-16T02:41:42;8.80;;;7.80;;
41141;SDS011;63666;52.284;20.890;2022-10-16T02:44:15;9.10;;;7.90;;
41141;SDS011;63666;52.284;20.890;2022-10-16T02:46:47;8.80;;;7.90;;
41141;SDS011;63666;52.284;20.890;2022-10-16T02:49:19;8.30;;;7.40;;
41141;SDS011;63666;52.284;20.890;2022-10-16T02:51:51;9.10;;;8.20;;
41141;SDS011;63666;52.284;20.890;2022-10-16T02:54:23;9.40;;;8.40;;
41141;SDS011;63666;52.284;20.890;2022-10-16T02:56:55;8.90;;;7.50;;
41141;SDS011;63666;52.284;20.890;2022-10-16T02:59:27;9.60;;;8.00;;
41141;SDS011;63666;52.284;20.890;2022-10-16T03:01:59;9.00;;;7.80;;
41141;SDS011;63666;52.284;20.890;2022-10-16T03:04:31;9.10;;;7.90;;
41141;SDS011;63666;52.284;20.890;2022-10-16T03:07:03;8.60;;;7.60;;
41141;SDS011;63666;52.284;20.890;2022-10-16T03:09:36;8.90;;;7.90;;
41141;SDS011;63666;52.284;20.890;2022-10-16T03:12:08;9.10;;;7.70;;
41141;SDS011;63666;52.284;20.890;2022-10-16T03:14:41;8.70;;;7.80;;
41141;SDS011;63666;52.284;20.890;2022-10-16T03:17:13;8.40;;;7.40;;
41141;SDS011;63666;52.284;20.890;2022-10-16T03:19:47;8.70;;;7.60;;
41141;SDS011;63666;52.284;20.890;2022-10-16T03:22:19;9.00;;;7.90;;
41141;SDS011;63666;52.284;20.890;2022-10-16T03:24:51;8.50;;;7.30;;
41141;SDS011;63666;52.284;20.890;2022-10-16T03:27:24;8.80;;;7.90;;
41141;SDS011;63666;52.284;20.890;2022-10-16T03:29:56;8.80;;;7.90;;
41141;SDS011;63666;52.284;20.890;2022-10-16T03:32:29;9.60;;;8.10;;
41141;SDS011;63666;52.284;20.890;2022-10-16T03:35:01;8.70;;;7.60;;
41141;SDS011;63666;52.284;20.890;2022-10-16T03:37:34;8.70;;;7.80;;
41141;SDS011;63666;52.284;20.890;2022-10-16T03:40:09;8.10;;;7.30;;
41141;SDS011;63666;52.284;20.890;2022-10-16T03:42:43;8.50;;;7.60;;
41141;SDS011;63666;52.284;20.890;2022-10-16T03:45:15;9.20;;;7.80;;
41141;SDS011;63666;52.284;20.890;2022-10-16T03:47:50;9.00;;;7.90;;
41141;SDS011;63666;52.284;20.890;2022-10-16T03:50:22;9.00;;;7.90;;
41141;SDS011;63666;52.284;20.890;2022-10-16T03:52:54;9.80;;;8.30;;
41141;SDS011;63666;52.284;20.890;2022-10-16T03:55:27;9.20;;;7.30;;
41141;SDS011;63666;52.284;20.890;2022-10-16T03:57:59;8.90;;;7.70;;
41141;SDS011;63666;52.284;20.890;2022-10-16T04:00:31;8.40;;;7.50;;
41141;SDS011;63666;52.284;20.890;2022-10-16T04:03:05;8.90;;;7.50;;
41141;SDS011;63666;52.284;20.890;2022-10-16T04:05:40;8.80;;;7.80;;
41141;SDS011;63666;52.284;20.890;2022-10-16T04:08:12;9.10;;;7.80;;
41141;SDS011;63666;52.284;20.890;2022-10-16T04:10:46;9.80;;;7.70;;
41141;SDS011;63666;52.284;20.890;2022-10-16T04:13:26;8.50;;;7.60;;
41141;SDS011;63666;52.284;20.890;2022-10-16T04:15:58;8.20;;;7.30;;
41141;SDS011;63666;52.284;20.890;2022-10-16T04:18:30;8.80;;;7.70;;
41141;SDS011;63666;52.284;20.890;2022-10-16T04:21:04;9.40;;;7.90;;
41141;SDS011;63666;52.284;20.890;2022-10-16T04:23:38;8.50;;;7.50;;
41141;SDS011;63666;52.284;20.890;2022-10-16T04:28:41;9.40;;;8.10;;
41141;SDS011;63666;52.284;20.890;2022-10-16T04:31:14;8.80;;;7.60;;
41141;SDS011;63666;52.284;20.890;2022-10-16T04:33:46;9.20;;;8.10;;
41141;SDS011;63666;52.284;20.890;2022-10-16T04:36:19;9.30;;;8.20;;
41141;SDS011;63666;52.284;20.890;2022-10-16T04:38:51;9.60;;;8.10;;
41141;SDS011;63666;52.284;20.890;2022-10-16T04:41:23;9.00;;;8.00;;
41141;SDS011;63666;52.284;20.890;2022-10-16T04:43:56;9.20;;;7.90;;
41141;SDS011;63666;52.284;20.890;2022-10-16T04:46:28;9.20;;;7.90;;
41141;SDS011;63666;52.284;20.890;2022-10-16T04:49:01;9.30;;;8.30;;
41141;SDS011;63666;52.284;20.890;2022-10-16T04:51:33;9.30;;;8.40;;
41141;SDS011;63666;52.284;20.890;2022-10-16T04:54:05;9.00;;;7.90;;
41141;SDS011;63666;52.284;20.890;2022-10-16T04:59:17;8.50;;;7.60;;
41141;SDS011;63666;52.284;20.890;2022-10-16T05:04:20;9.60;;;7.90;;
41141;SDS011;63666;52.284;20.890;2022-10-16T05:06:55;9.20;;;7.60;;
41141;SDS011;63666;52.284;20.890;2022-10-16T05:09:27;8.50;;;7.70;;
41141;SDS011;63666;52.284;20.890;2022-10-16T05:11:59;9.00;;;8.10;;
41141;SDS011;63666;52.284;20.890;2022-10-16T05:14:32;9.60;;;8.40;;
41141;SDS011;63666;52.284;20.890;2022-10-16T05:17:04;8.80;;;7.90;;
41141;SDS011;63666;52.284;20.890;2022-10-16T05:19:36;9.60;;;8.10;;
41141;SDS011;63666;52.284;20.890;2022-10-16T05:22:09;9.30;;;8.10;;
41141;SDS011;63666;52.284;20.890;2022-10-16T05:24:41;9.30;;;8.00;;
41141;SDS011;63666;52.284;20.890;2022-10-16T05:27:13;9.70;;;8.10;;
41141;SDS011;63666;52.284;20.890;2022-10-16T05:29:49;9.30;;;8.40;;
41141;SDS011;63666;52.284;20.890;2022-10-16T05:32:21;9.50;;;8.30;;
41141;SDS011;63666;52.284;20.890;2022-10-16T05:34:54;8.30;;;7.40;;
41141;SDS011;63666;52.284;20.890;2022-10-16T05:37:29;9.50;;;8.00;;
41141;SDS011;63666;52.284;20.890;2022-10-16T05:40:00;9.60;;;8.10;;
41141;SDS011;63666;52.284;20.890;2022-10-16T05:42:34;9.50;;;8.40;;
41141;SDS011;63666;52.284;20.890;2022-10-16T05:45:11;9.00;;;8.00;;
41141;SDS011;63666;52.284;20.890;2022-10-16T05:47:43;8.70;;;7.80;;
41141;SDS011;63666;52.284;20.890;2022-10-16T05:50:15;8.90;;;7.80;;
41141;SDS011;63666;52.284;20.890;2022-10-16T05:52:48;8.70;;;7.80;;
41141;SDS011;63666;52.284;20.890;2022-10-16T05:55:20;9.00;;;7.60;;
41141;SDS011;63666;52.284;20.890;2022-10-16T05:57:55;9.30;;;8.10;;
41141;SDS011;63666;52.284;20.890;2022-10-16T06:00:27;8.70;;;7.80;;
41141;SDS011;63666;52.284;20.890;2022-10-16T06:02:59;9.20;;;8.00;;
41141;SDS011;63666;52.284;20.890;2022-10-16T06:05:31;8.80;;;7.50;;
41141;SDS011;63666;52.284;20.890;2022-10-16T06:08:04;8.90;;;7.70;;
41141;SDS011;63666;52.284;20.890;2022-10-16T06:10:36;8.90;;;7.50;;
41141;SDS011;63666;52.284;20.890;2022-10-16T06:13:08;9.00;;;7.60;;
41141;SDS011;63666;52.284;20.890;2022-10-16T06:15:40;8.80;;;7.70;;
41141;SDS011;63666;52.284;20.890;2022-10-16T06:18:13;9.20;;;8.20;;
41141;SDS011;63666;52.284;20.890;2022-10-16T06:20:45;8.90;;;8.00;;
41141;SDS011;63666;52.284;20.890;2022-10-16T06:23:16;8.80;;;7.80;;
41141;SDS011;63666;52.284;20.890;2022-10-16T06:25:49;8.50;;;7.60;;
41141;SDS011;63666;52.284;20.890;2022-10-16T06:28:23;9.10;;;8.00;;
41141;SDS011;63666;52.284;20.890;2022-10-16T06:31:04;9.40;;;7.60;;
41141;SDS011;63666;52.284;20.890;2022-10-16T06:33:38;9.00;;;7.90;;
41141;SDS011;63666;52.284;20.890;2022-10-16T06:36:13;8.40;;;7.40;;
41141;SDS011;63666;52.284;20.890;2022-10-16T06:38:46;8.60;;;7.50;;
41141;SDS011;63666;52.284;20.890;2022-10-16T06:41:20;9.00;;;8.10;;
41141;SDS011;63666;52.284;20.890;2022-10-16T06:44:08;8.80;;;7.80;;
41141;SDS011;63666;52.284;20.890;2022-10-16T06:46:40;9.10;;;7.90;;
41141;SDS011;63666;52.284;20.890;2022-10-16T06:49:12;9.30;;;8.20;;
41141;SDS011;63666;52.284;20.890;2022-10-16T06:51:50;8.70;;;7.80;;
41141;SDS011;63666;52.284;20.890;2022-10-16T06:54:22;8.90;;;7.90;;
41141;SDS011;63666;52.284;20.890;2022-10-16T06:56:56;9.10;;;8.10;;
41141;SDS011;63666;52.284;20.890;2022-10-16T06:59:29;8.60;;;7.70;;
41141;SDS011;63666;52.284;20.890;2022-10-16T07:02:01;8.80;;;7.80;;
41141;SDS011;63666;52.284;20.890;2022-10-16T07:04:34;8.60;;;7.70;;
41141;SDS011;63666;52.284;20.890;2022-10-16T07:09:37;8.50;;;7.50;;
41141;SDS011;63666;52.284;20.890;2022-10-16T07:12:10;8.70;;;7.80;;
41141;SDS011;63666;52.284;20.890;2022-10-16T07:14:42;8.50;;;7.60;;
41141;SDS011;63666;52.284;20.890;2022-10-16T07:17:14;8.70;;;7.60;;
41141;SDS011;63666;52.284;20.890;2022-10-16T07:19:47;8.40;;;7.40;;
41141;SDS011;63666;52.284;20.890;2022-10-16T07:22:22;9.10;;;7.90;;
41141;SDS011;63666;52.284;20.890;2022-10-16T07:24:54;8.90;;;8.00;;
41141;SDS011;63666;52.284;20.890;2022-10-16T07:27:26;8.70;;;7.50;;
41141;SDS011;63666;52.284;20.890;2022-10-16T07:29:58;8.70;;;7.80;;
41141;SDS011;63666;52.284;20.890;2022-10-16T07:32:30;8.80;;;7.80;;
41141;SDS011;63666;52.284;20.890;2022-10-16T07:35:03;8.90;;;7.80;;
41141;SDS011;63666;52.284;20.890;2022-10-16T07:37:38;8.10;;;7.20;;
41141;SDS011;63666;52.284;20.890;2022-10-16T07:40:16;8.60;;;7.70;;
41141;SDS011;63666;52.284;20.890;2022-10-16T07:42:48;8.30;;;7.40;;
41141;SDS011;63666;52.284;20.890;2022-10-16T07:45:24;9.10;;;8.10;;
41141;SDS011;63666;52.284;20.890;2022-10-16T07:47:56;8.30;;;7.20;;
41141;SDS011;63666;52.284;20.890;2022-10-16T07:50:28;8.30;;;7.50;;
41141;SDS011;63666;52.284;20.890;2022-10-16T07:53:00;8.60;;;7.60;;
41141;SDS011;63666;52.284;20.890;2022-10-16T07:55:35;9.10;;;8.10;;
41141;SDS011;63666;52.284;20.890;2022-10-16T07:58:08;8.50;;;7.20;;
41141;SDS011;63666;52.284;20.890;2022-10-16T08:00:40;8.40;;;7.40;;
41141;SDS011;63666;52.284;20.890;2022-10-16T08:03:12;7.70;;;6.70;;
41141;SDS011;63666;52.284;20.890;2022-10-16T08:05:46;8.30;;;7.20;;
41141;SDS011;63666;52.284;20.890;2022-10-16T08:08:19;8.60;;;7.70;;
41141;SDS011;63666;52.284;20.890;2022-10-16T08:10:51;7.80;;;7.00;;
41141;SDS011;63666;52.284;20.890;2022-10-16T08:13:24;9.00;;;8.00;;
41141;SDS011;63666;52.284;20.890;2022-10-16T08:15:57;10.30;;;8.20;;
41141;SDS011;63666;52.284;20.890;2022-10-16T08:18:29;10.80;;;7.90;;
41141;SDS011;63666;52.284;20.890;2022-10-16T08:21:01;8.60;;;7.30;;
41141;SDS011;63666;52.284;20.890;2022-10-16T08:23:34;11.40;;;7.70;;
41141;SDS011;63666;52.284;20.890;2022-10-16T08:26:07;9.40;;;7.70;;
41141;SDS011;63666;52.284;20.890;2022-10-16T08:28:40;9.60;;;7.20;;
41141;SDS011;63666;52.284;20.890;2022-10-16T08:31:15;9.20;;;7.80;;
41141;SDS011;63666;52.284;20.890;2022-10-16T08:33:47;8.90;;;7.50;;
41141;SDS011;63666;52.284;20.890;2022-10-16T08:36:21;11.20;;;7.60;;
41141;SDS011;63666;52.284;20.890;2022-10-16T08:38:53;9.10;;;7.70;;
41141;SDS011;63666;52.284;20.890;2022-10-16T08:42:03;9.30;;;7.30;;
41141;SDS011;63666;52.284;20.890;2022-10-16T08:47:52;9.80;;;8.20;;
41141;SDS011;63666;52.284;20.890;2022-10-16T08:50:32;9.30;;;7.60;;
41141;SDS011;63666;52.284;20.890;2022-10-16T08:53:15;9.20;;;7.90;;
41141;SDS011;63666;52.284;20.890;2022-10-16T08:55:51;9.60;;;7.70;;
41141;SDS011;63666;52.284;20.890;2022-10-16T08:58:27;11.10;;;8.00;;
41141;SDS011;63666;52.284;20.890;2022-10-16T09:01:03;9.90;;;7.80;;
41141;SDS011;63666;52.284;20.890;2022-10-16T09:03:53;10.40;;;8.10;;
41141;SDS011;63666;52.284;20.890;2022-10-16T09:06:50;8.90;;;7.70;;
41141;SDS011;63666;52.284;20.890;2022-10-16T09:09:38;9.20;;;8.00;;
41141;SDS011;63666;52.284;20.890;2022-10-16T09:12:22;11.50;;;7.80;;
41141;SDS011;63666;52.284;20.890;2022-10-16T09:15:05;10.70;;;8.00;;
41141;SDS011;63666;52.284;20.890;2022-10-16T09:17:49;10.30;;;7.70;;
41141;SDS011;63666;52.284;20.890;2022-10-16T09:20:38;9.90;;;7.60;;
41141;SDS011;63666;52.284;20.890;2022-10-16T09:23:18;10.70;;;8.30;;
41141;SDS011;63666;52.284;20.890;2022-10-16T09:25:54;9.30;;;8.10;;
41141;SDS011;63666;52.284;20.890;2022-10-16T09:28:27;9.80;;;7.80;;
41141;SDS011;63666;52.284;20.890;2022-10-16T09:30:59;11.50;;;8.30;;
41141;SDS011;63666;52.284;20.890;2022-10-16T09:33:35;11.00;;;8.20;;
41141;SDS011;63666;52.284;20.890;2022-10-16T09:36:09;8.60;;;7.50;;
41141;SDS011;63666;52.284;20.890;2022-10-16T09:38:42;9.40;;;7.40;;
41141;SDS011;63666;52.284;20.890;2022-10-16T09:41:18;9.20;;;7.90;;
41141;SDS011;63666;52.284;20.890;2022-10-16T09:43:57;9.30;;;7.80;;
41141;SDS011;63666;52.284;20.890;2022-10-16T09:46:31;10.30;;;8.30;;
41141;SDS011;63666;52.284;20.890;2022-10-16T09:49:18;10.20;;;7.90;;
41141;SDS011;63666;52.284;20.890;2022-10-16T09:52:11;11.00;;;8.50;;
41141;SDS011;63666;52.284;20.890;2022-10-16T09:54:52;9.60;;;8.30;;
41141;SDS011;63666;52.284;20.890;2022-10-16T09:57:26;9.70;;;7.80;;
41141;SDS011;63666;52.284;20.890;2022-10-16T10:00:00;9.10;;;8.10;;
41141;SDS011;63666;52.284;20.890;2022-10-16T10:02:39;8.90;;;7.40;;
41141;SDS011;63666;52.284;20.890;2022-10-16T10:05:21;9.80;;;7.90;;
41141;SDS011;63666;52.284;20.890;2022-10-16T10:07:59;9.80;;;8.20;;
41141;SDS011;63666;52.284;20.890;2022-10-16T10:10:41;8.80;;;7.80;;
41141;SDS011;63666;52.284;20.890;2022-10-16T10:13:22;8.60;;;7.70;;
41141;SDS011;63666;52.284;20.890;2022-10-16T10:15:56;9.10;;;8.10;;
41141;SDS011;63666;52.284;20.890;2022-10-16T10:18:31;9.10;;;8.00;;
41141;SDS011;63666;52.284;20.890;2022-10-16T10:21:04;9.50;;;7.10;;
41141;SDS011;63666;52.284;20.890;2022-10-16T10:23:43;8.30;;;7.40;;
41141;SDS011;63666;52.284;20.890;2022-10-16T10:26:22;9.20;;;7.80;;
41141;SDS011;63666;52.284;20.890;2022-10-16T10:29:02;9.00;;;7.90;;
41141;SDS011;63666;52.284;20.890;2022-10-16T10:31:47;9.00;;;8.00;;
41141;SDS011;63666;52.284;20.890;2022-10-16T10:34:38;9.10;;;7.50;;
41141;SDS011;63666;52.284;20.890;2022-10-16T10:37:37;8.60;;;7.70;;
41141;SDS011;63666;52.284;20.890;2022-10-16T10:40:29;8.40;;;7.40;;
41141;SDS011;63666;52.284;20.890;2022-10-16T10:43:10;8.60;;;7.60;;
41141;SDS011;63666;52.284;20.890;2022-10-16T10:45:52;8.90;;;7.40;;
41141;SDS011;63666;52.284;20.890;2022-10-16T10:48:44;8.30;;;7.30;;
41141;SDS011;63666;52.284;20.890;2022-10-16T10:51:27;9.70;;;7.80;;
41141;SDS011;63666;52.284;20.890;2022-10-16T10:54:13;9.00;;;7.50;;
41141;SDS011;63666;52.284;20.890;2022-10-16T10:56:56;8.70;;;7.60;;
41141;SDS011;63666;52.284;20.890;2022-10-16T10:59:53;8.40;;;7.40;;
41141;SDS011;63666;52.284;20.890;2022-10-16T11:02:37;8.90;;;7.50;;
41141;SDS011;63666;52.284;20.890;2022-10-16T11:05:36;8.60;;;7.20;;
41141;SDS011;63666;52.284;20.890;2022-10-16T11:08:19;8.40;;;7.20;;
41141;SDS011;63666;52.284;20.890;2022-10-16T11:10:54;8.00;;;7.20;;
41141;SDS011;63666;52.284;20.890;2022-10-16T11:13:34;8.50;;;7.10;;
41141;SDS011;63666;52.284;20.890;2022-10-16T11:16:17;8.40;;;7.50;;
41141;SDS011;63666;52.284;20.890;2022-10-16T11:18:58;8.00;;;7.20;;
41141;SDS011;63666;52.284;20.890;2022-10-16T11:21:38;8.00;;;7.20;;
41141;SDS011;63666;52.284;20.890;2022-10-16T11:24:26;9.10;;;8.10;;
41141;SDS011;63666;52.284;20.890;2022-10-16T11:27:12;8.20;;;7.30;;
41141;SDS011;63666;52.284;20.890;2022-10-16T11:29:53;9.50;;;7.50;;
41141;SDS011;63666;52.284;20.890;2022-10-16T11:32:31;8.40;;;6.80;;
41141;SDS011;63666;52.284;20.890;2022-10-16T11:35:14;8.00;;;7.00;;
41141;SDS011;63666;52.284;20.890;2022-10-16T11:37:51;8.40;;;7.10;;
41141;SDS011;63666;52.284;20.890;2022-10-16T11:40:30;8.50;;;7.50;;
41141;SDS011;63666;52.284;20.890;2022-10-16T11:43:09;8.70;;;7.00;;
41141;SDS011;63666;52.284;20.890;2022-10-16T11:45:48;8.10;;;7.00;;
41141;SDS011;63666;52.284;20.890;2022-10-16T11:48:27;7.70;;;6.80;;
41141;SDS011;63666;52.284;20.890;2022-10-16T11:51:11;8.20;;;7.20;;
41141;SDS011;63666;52.284;20.890;2022-10-16T11:53:53;8.50;;;7.50;;
41141;SDS011;63666;52.284;20.890;2022-10-16T11:56:28;7.90;;;6.90;;
41141;SDS011;63666;52.284;20.890;2022-10-16T11:59:05;8.50;;;7.60;;
41141;SDS011;63666;52.284;20.890;2022-10-16T12:01:46;8.30;;;7.50;;
41141;SDS011;63666;52.284;20.890;2022-10-16T12:04:25;8.60;;;7.50;;
41141;SDS011;63666;52.284;20.890;2022-10-16T12:07:06;7.60;;;6.70;;
41141;SDS011;63666;52.284;20.890;2022-10-16T12:09:40;7.70;;;6.80;;
41141;SDS011;63666;52.284;20.890;2022-10-16T12:12:27;8.30;;;7.00;;
41141;SDS011;63666;52.284;20.890;2022-10-16T12:15:23;8.50;;;7.60;;
41141;SDS011;63666;52.284;20.890;2022-10-16T12:18:01;7.60;;;6.80;;
41141;SDS011;63666;52.284;20.890;2022-10-16T12:20:34;8.20;;;7.00;;
41141;SDS011;63666;52.284;20.890;2022-10-16T12:23:18;9.00;;;7.20;;
41141;SDS011;63666;52.284;20.890;2022-10-16T12:25:57;8.90;;;7.30;;
41141;SDS011;63666;52.284;20.890;2022-10-16T12:28:32;8.20;;;7.10;;
41141;SDS011;63666;52.284;20.890;2022-10-16T12:31:07;7.70;;;6.90;;
41141;SDS011;63666;52.284;20.890;2022-10-16T12:33:53;8.30;;;7.40;;
41141;SDS011;63666;52.284;20.890;2022-10-16T12:36:31;8.40;;;7.60;;
41141;SDS011;63666;52.284;20.890;2022-10-16T12:39:04;8.10;;;7.00;;
41141;SDS011;63666;52.284;20.890;2022-10-16T12:41:46;8.30;;;7.10;;
41141;SDS011;63666;52.284;20.890;2022-10-16T12:44:24;8.60;;;7.50;;
41141;SDS011;63666;52.284;20.890;2022-10-16T12:46:57;8.10;;;7.30;;
41141;SDS011;63666;52.284;20.890;2022-10-16T12:49:35;8.00;;;6.80;;
41141;SDS011;63666;52.284;20.890;2022-10-16T12:55:17;8.00;;;6.80;;
41141;SDS011;63666;52.284;20.890;2022-10-16T12:58:05;8.20;;;6.90;;
41141;SDS011;63666;52.284;20.890;2022-10-16T13:00:53;8.00;;;7.20;;
41141;SDS011;63666;52.284;20.890;2022-10-16T13:03:50;7.80;;;7.00;;
41141;SDS011;63666;52.284;20.890;2022-10-16T13:06:42;8.30;;;7.30;;
41141;SDS011;63666;52.284;20.890;2022-10-16T13:09:37;8.10;;;6.90;;
41141;SDS011;63666;52.284;20.890;2022-10-16T13:12:27;8.10;;;7.20;;
41141;SDS011;63666;52.284;20.890;2022-10-16T13:15:28;8.10;;;6.70;;
41141;SDS011;63666;52.284;20.890;2022-10-16T13:18:12;7.60;;;6.70;;
41141;SDS011;63666;52.284;20.890;2022-10-16T13:21:02;7.40;;;6.50;;
41141;SDS011;63666;52.284;20.890;2022-10-16T13:23:50;7.80;;;7.00;;
41141;SDS011;63666;52.284;20.890;2022-10-16T13:26:35;8.30;;;7.20;;
41141;SDS011;63666;52.284;20.890;2022-10-16T13:29:11;7.50;;;6.60;;
41141;SDS011;63666;52.284;20.890;2022-10-16T13:34:21;7.90;;;6.90;;
41141;SDS011;63666;52.284;20.890;2022-10-16T13:36:57;7.40;;;6.70;;
41141;SDS011;63666;52.284;20.890;2022-10-16T13:39:30;8.00;;;6.80;;
41141;SDS011;63666;52.284;20.890;2022-10-16T13:42:09;7.40;;;6.40;;
41141;SDS011;63666;52.284;20.890;2022-10-16T13:44:46;7.70;;;6.90;;
41141;SDS011;63666;52.284;20.890;2022-10-16T13:47:22;7.80;;;6.30;;
41141;SDS011;63666;52.284;20.890;2022-10-16T13:50:03;7.50;;;6.20;;
41141;SDS011;63666;52.284;20.890;2022-10-16T13:52:39;8.60;;;7.10;;
41141;SDS011;63666;52.284;20.890;2022-10-16T13:55:14;7.60;;;6.80;;
41141;SDS011;63666;52.284;20.890;2022-10-16T13:57:47;7.80;;;6.90;;
41141;SDS011;63666;52.284;20.890;2022-10-16T14:00:24;7.30;;;6.40;;
41141;SDS011;63666;52.284;20.890;2022-10-16T14:03:06;8.20;;;7.30;;
41141;SDS011;63666;52.284;20.890;2022-10-16T14:05:49;7.10;;;6.30;;
41141;SDS011;63666;52.284;20.890;2022-10-16T14:08:22;7.50;;;6.10;;
41141;SDS011;63666;52.284;20.890;2022-10-16T14:10:57;7.80;;;6.50;;
41141;SDS011;63666;52.284;20.890;2022-10-16T14:13:34;7.60;;;6.80;;
41141;SDS011;63666;52.284;20.890;2022-10-16T14:16:17;7.90;;;6.50;;
41141;SDS011;63666;52.284;20.890;2022-10-16T14:18:57;7.70;;;6.60;;
41141;SDS011;63666;52.284;20.890;2022-10-16T14:21:32;7.20;;;6.30;;
41141;SDS011;63666;52.284;20.890;2022-10-16T14:24:13;7.70;;;6.50;;
41141;SDS011;63666;52.284;20.890;2022-10-16T14:26:57;7.80;;;7.00;;
41141;SDS011;63666;52.284;20.890;2022-10-16T14:29:30;8.00;;;6.80;;
41141;SDS011;63666;52.284;20.890;2022-10-16T14:32:05;7.80;;;6.60;;
41141;SDS011;63666;52.284;20.890;2022-10-16T14:34:55;7.90;;;6.80;;
41141;SDS011;63666;52.284;20.890;2022-10-16T14:37:29;7.30;;;6.30;;
41141;SDS011;63666;52.284;20.890;2022-10-16T14:40:03;8.10;;;6.80;;
41141;SDS011;63666;52.284;20.890;2022-10-16T14:42:44;7.10;;;6.40;;
41141;SDS011;63666;52.284;20.890;2022-10-16T14:45:20;8.60;;;7.30;;
41141;SDS011;63666;52.284;20.890;2022-10-16T14:47:56;7.70;;;6.50;;
41141;SDS011;63666;52.284;20.890;2022-10-16T14:50:29;7.60;;;6.50;;
41141;SDS011;63666;52.284;20.890;2022-10-16T14:53:04;8.20;;;6.40;;
41141;SDS011;63666;52.284;20.890;2022-10-16T14:55:44;7.20;;;6.50;;
41141;SDS011;63666;52.284;20.890;2022-10-16T14:58:20;7.90;;;6.80;;
41141;SDS011;63666;52.284;20.890;2022-10-16T15:00:58;7.80;;;6.80;;
41141;SDS011;63666;52.284;20.890;2022-10-16T15:03:36;7.40;;;6.50;;
41141;SDS011;63666;52.284;20.890;2022-10-16T15:06:13;7.80;;;6.20;;
41141;SDS011;63666;52.284;20.890;2022-10-16T15:08:50;7.40;;;6.20;;
41141;SDS011;63666;52.284;20.890;2022-10-16T15:11:22;7.20;;;6.20;;
41141;SDS011;63666;52.284;20.890;2022-10-16T15:13:54;7.50;;;6.70;;
41141;SDS011;63666;52.284;20.890;2022-10-16T15:16:27;7.60;;;6.50;;
41141;SDS011;63666;52.284;20.890;2022-10-16T15:18:59;8.10;;;6.60;;
41141;SDS011;63666;52.284;20.890;2022-10-16T15:21:32;7.50;;;6.50;;
41141;SDS011;63666;52.284;20.890;2022-10-16T15:24:11;8.90;;;7.20;;
41141;SDS011;63666;52.284;20.890;2022-10-16T15:26:43;7.50;;;6.40;;
41141;SDS011;63666;52.284;20.890;2022-10-16T15:29:16;7.60;;;6.60;;
41141;SDS011;63666;52.284;20.890;2022-10-16T15:31:48;7.10;;;6.30;;
41141;SDS011;63666;52.284;20.890;2022-10-16T15:34:21;7.50;;;6.50;;
41141;SDS011;63666;52.284;20.890;2022-10-16T15:36:53;8.20;;;6.80;;
41141;SDS011;63666;52.284;20.890;2022-10-16T15:39:27;7.60;;;6.60;;
41141;SDS011;63666;52.284;20.890;2022-10-16T15:41:59;8.50;;;6.90;;
41141;SDS011;63666;52.284;20.890;2022-10-16T15:44:31;7.40;;;6.60;;
41141;SDS011;63666;52.284;20.890;2022-10-16T15:47:03;8.10;;;6.90;;
41141;SDS011;63666;52.284;20.890;2022-10-16T15:49:38;7.70;;;6.30;;